Time;durP1;ratioP1;P1;durP2;ratioP2;P2;SDS_P1;SDS_P2;PMS_P1;PMS_P2;Temp;Humidity;BMP_temperature;BMP_pressure;BME280_temperature;BME280_humidity;BME280_pressure;Samples;Min_cycle;Max_cycle;Signal;HPM_P1;HPM_P2
2022/07/17 00:01:29;;;;;;;7.53;2.58;;;12.20;84.30;;;;;;5050226;28;20028;-46
2022/07/17 00:03:54;;;;;;;6.97;2.53;;;12.20;84.40;;;;;;5049536;28;20029;-46
2022/07/17 00:06:22;;;;;;;6.38;2.17;;;12.20;84.50;;;;;;5049865;28;20033;-47
2022/07/17 00:08:51;;;;;;;6.97;2.72;;;12.10;84.40;;;;;;5050802;28;20028;-46
2022/07/17 00:11:18;;;;;;;6.55;2.42;;;12.10;84.50;;;;;;5049878;28;20028;-46
2022/07/17 00:13:44;;;;;;;11.68;2.67;;;12.10;84.40;;;;;;5050231;28;20076;-48
2022/07/17 00:16:12;;;;;;;7.28;2.53;;;12.00;84.40;;;;;;5049235;28;20060;-48
2022/07/17 00:18:38;;;;;;;6.68;2.20;;;12.00;84.50;;;;;;5049225;28;20606;-46
2022/07/17 00:21:03;;;;;;;13.07;2.78;;;12.00;84.60;;;;;;5032119;28;20029;-46
2022/07/17 00:23:31;;;;;;;7.53;3.05;;;12.00;84.70;;;;;;5049219;28;20029;-46
2022/07/17 00:25:57;;;;;;;6.80;2.55;;;12.10;84.70;;;;;;5048988;28;20105;-47
2022/07/17 00:28:23;;;;;;;11.55;3.40;;;12.00;84.90;;;;;;5049479;28;20100;-46
2022/07/17 00:30:48;;;;;;;9.52;2.55;;;12.10;85.00;;;;;;5049283;28;20025;-46
2022/07/17 00:33:14;;;;;;;11.23;2.63;;;12.20;84.90;;;;;;5031782;28;20032;-46
2022/07/17 00:35:40;;;;;;;8.73;2.40;;;12.20;85.00;;;;;;5049564;28;20045;-46
2022/07/17 00:38:05;;;;;;;9.23;2.38;;;12.30;84.80;;;;;;5048731;28;20037;-45
2022/07/17 00:40:31;;;;;;;4.53;2.38;;;12.40;84.50;;;;;;5048700;28;20028;-46
2022/07/17 00:42:56;;;;;;;11.48;2.35;;;12.40;84.50;;;;;;5049648;28;20025;-48
2022/07/17 00:45:24;;;;;;;8.13;2.58;;;12.40;84.50;;;;;;5067839;28;20075;-46
2022/07/17 00:47:56;;;;;;;5.40;2.28;;;12.40;84.50;;;;;;5069179;28;20025;-49
2022/07/17 00:50:33;;;;;;;6.93;2.25;;;12.40;84.50;;;;;;5069754;28;20032;-46
2022/07/17 00:52:59;;;;;;;5.13;2.22;;;12.40;84.30;;;;;;5051897;28;20045;-47
2022/07/17 00:55:25;;;;;;;4.95;1.70;;;12.40;84.40;;;;;;5069617;28;20032;-47
2022/07/17 00:57:54;;;;;;;5.63;1.85;;;12.40;84.10;;;;;;5069171;28;20032;-48
2022/07/17 01:00:22;;;;;;;10.75;4.03;;;12.40;83.80;;;;;;5069568;28;20171;-47
2022/07/17 01:02:51;;;;;;;5.85;3.17;;;12.30;83.80;;;;;;5051713;28;20039;-46
2022/07/17 01:05:17;;;;;;;11.90;3.08;;;12.30;83.90;;;;;;5069150;28;20091;-46
2022/07/17 01:07:44;;;;;;;12.52;3.22;;;12.20;83.70;;;;;;5069268;28;20043;-49
2022/07/17 01:10:11;;;;;;;8.35;2.25;;;12.20;83.80;;;;;;5069200;28;20036;-48
2022/07/17 01:12:37;;;;;;;10.48;2.65;;;12.20;83.90;;;;;;5069770;28;20028;-46
2022/07/17 01:15:06;;;;;;;6.78;2.20;;;12.10;84.20;;;;;;5067964;28;20021;-46
2022/07/17 01:17:34;;;;;;;7.10;2.50;;;12.10;84.30;;;;;;5068186;28;20104;-46
2022/07/17 01:20:05;;;;;;;8.32;2.58;;;12.10;84.60;;;;;;5068631;28;20036;-46
2022/07/17 01:22:31;;;;;;;8.73;2.20;;;12.10;84.70;;;;;;5068455;28;20103;-46
2022/07/17 01:25:00;;;;;;;7.25;2.67;;;12.00;84.80;;;;;;5051098;28;20048;-46
2022/07/17 01:27:26;;;;;;;4.15;2.08;;;12.00;85.00;;;;;;5068463;28;20056;-47
2022/07/17 01:29:52;;;;;;;5.85;2.30;;;12.00;84.90;;;;;;5050391;28;20048;-46
2022/07/17 01:32:17;;;;;;;5.45;1.80;;;12.00;85.10;;;;;;5068625;28;20024;-46
2022/07/17 01:34:43;;;;;;;5.63;2.47;;;11.90;85.00;;;;;;5050608;28;20032;-46
2022/07/17 01:37:08;;;;;;;7.45;2.05;;;11.90;85.00;;;;;;5068361;28;20032;-46
2022/07/17 01:39:52;;;;;;;5.13;2.63;;;11.90;85.00;;;;;;5067447;28;20357;-47
2022/07/17 01:42:18;;;;;;;8.10;1.85;;;11.90;85.00;;;;;;5068197;28;20366;-46
2022/07/17 01:44:44;;;;;;;7.53;2.45;;;11.90;85.30;;;;;;5068404;28;20048;-46
2022/07/17 01:47:12;;;;;;;9.25;2.60;;;11.90;85.40;;;;;;5068658;28;20035;-46
2022/07/17 01:49:38;;;;;;;8.05;2.45;;;11.90;85.30;;;;;;5049827;28;20033;-46
2022/07/17 01:52:04;;;;;;;7.78;2.45;;;11.90;85.30;;;;;;5068090;28;20044;-46
2022/07/17 01:54:30;;;;;;;5.35;2.22;;;11.90;85.40;;;;;;5050641;28;20040;-46
2022/07/17 01:56:58;;;;;;;7.15;2.47;;;11.90;85.50;;;;;;5050911;28;20024;-47
2022/07/17 01:59:26;;;;;;;6.95;2.10;;;11.80;85.70;;;;;;5068767;28;20080;-46
2022/07/17 02:01:52;;;;;;;7.60;2.60;;;11.80;85.70;;;;;;5068093;28;20032;-47
2022/07/17 02:04:18;;;;;;;6.43;2.50;;;11.90;85.70;;;;;;5050668;28;20027;-46
2022/07/17 02:06:43;;;;;;;9.68;3.13;;;11.80;85.50;;;;;;5067778;28;20059;-49
2022/07/17 02:09:09;;;;;;;10.00;2.40;;;11.80;85.70;;;;;;5050418;28;20024;-47
2022/07/17 02:11:34;;;;;;;8.10;3.10;;;11.70;85.80;;;;;;5050614;28;20048;-48
2022/07/17 02:14:00;;;;;;;8.38;2.92;;;11.70;85.90;;;;;;5050790;28;20028;-46
2022/07/17 02:16:26;;;;;;;8.32;2.40;;;11.70;86.00;;;;;;5068739;28;20024;-46
2022/07/17 02:18:51;;;;;;;3.33;2.05;;;11.70;85.90;;;;;;5050371;28;20043;-46
2022/07/17 02:21:20;;;;;;;5.18;2.30;;;11.80;86.00;;;;;;5050436;28;20434;-47
2022/07/17 02:23:45;;;;;;;7.40;2.65;;;11.80;86.10;;;;;;5051045;28;20039;-47
2022/07/17 02:26:11;;;;;;;7.05;2.30;;;11.80;86.10;;;;;;5067621;28;20107;-48
2022/07/17 02:28:36;;;;;;;6.47;2.45;;;11.80;86.10;;;;;;5068731;28;20028;-47
2022/07/17 02:31:02;;;;;;;8.70;3.03;;;11.80;86.20;;;;;;5072124;28;20066;-47
2022/07/17 02:33:28;;;;;;;8.25;2.58;;;11.80;86.30;;;;;;5054240;28;20434;-47
2022/07/17 02:35:53;;;;;;;11.45;2.85;;;11.70;86.10;;;;;;5071813;28;20037;-47
2022/07/17 02:38:19;;;;;;;7.43;3.33;;;11.70;86.20;;;;;;5072501;28;20035;-46
2022/07/17 02:40:45;;;;;;;8.48;4.38;;;11.70;86.10;;;;;;5071290;28;20047;-46
2022/07/17 02:43:11;;;;;;;10.88;3.90;;;11.70;86.30;;;;;;5072407;28;20046;-46
2022/07/17 02:45:36;;;;;;;7.75;3.42;;;11.60;86.30;;;;;;5072046;28;20048;-46
2022/07/17 02:48:02;;;;;;;8.65;3.13;;;11.60;86.40;;;;;;5071695;28;20028;-47
2022/07/17 02:50:28;;;;;;;6.13;3.70;;;11.50;86.40;;;;;;5071468;28;20036;-47
2022/07/17 02:52:54;;;;;;;8.40;3.42;;;11.60;86.50;;;;;;5063671;28;20021;-47
2022/07/17 02:55:20;;;;;;;5.70;2.90;;;11.50;86.70;;;;;;5072363;28;20111;-46
2022/07/17 02:57:48;;;;;;;8.73;3.42;;;11.60;86.80;;;;;;5071952;28;20428;-47
2022/07/17 03:00:16;;;;;;;6.10;3.25;;;11.60;86.80;;;;;;5053966;28;20455;-47
2022/07/17 03:02:48;;;;;;;7.50;3.30;;;11.60;86.80;;;;;;5071963;28;20060;-46
2022/07/17 03:05:15;;;;;;;6.72;2.80;;;11.70;86.80;;;;;;5053370;28;20020;-47
2022/07/17 03:07:41;;;;;;;6.25;3.30;;;11.70;86.80;;;;;;5071223;28;20036;-45
2022/07/17 03:10:10;;;;;;;10.02;3.72;;;11.70;86.80;;;;;;5071256;28;20029;-46
2022/07/17 03:12:36;;;;;;;5.93;4.03;;;11.80;86.80;;;;;;5071472;28;20062;-49
2022/07/17 03:15:03;;;;;;;5.53;3.17;;;11.80;86.60;;;;;;5071702;28;20078;-46
2022/07/17 03:17:28;;;;;;;8.40;3.13;;;11.80;86.60;;;;;;5071280;28;20029;-51
2022/07/17 03:19:54;;;;;;;7.75;3.67;;;11.80;86.60;;;;;;5071310;28;20426;-46
2022/07/17 03:22:19;;;;;;;8.27;3.72;;;11.70;86.50;;;;;;5071164;28;20097;-46
2022/07/17 03:24:47;;;;;;;5.85;2.97;;;11.70;86.60;;;;;;5069488;28;20514;-46
2022/07/17 03:27:13;;;;;;;13.40;4.45;;;11.70;86.30;;;;;;5071680;28;20029;-45
2022/07/17 03:29:41;;;;;;;9.27;3.25;;;11.70;86.40;;;;;;5071344;28;20036;-46
2022/07/17 03:32:07;;;;;;;5.18;3.47;;;11.60;86.30;;;;;;5053257;28;20327;-46
2022/07/17 03:34:32;;;;;;;7.30;2.80;;;11.60;86.40;;;;;;5052869;28;20036;-47
2022/07/17 03:36:58;;;;;;;9.10;3.40;;;11.60;86.30;;;;;;5071046;28;20037;-48
2022/07/17 03:39:26;;;;;;;6.53;3.05;;;11.60;86.40;;;;;;5070664;28;20163;-47
2022/07/17 03:41:52;;;;;;;8.43;3.13;;;11.50;86.50;;;;;;5066546;28;20029;-46
2022/07/17 03:44:20;;;;;;;6.40;3.10;;;11.50;86.60;;;;;;5070582;28;20055;-49
2022/07/17 03:46:45;;;;;;;5.80;3.30;;;11.50;86.50;;;;;;5070956;28;20035;-47
2022/07/17 03:49:11;;;;;;;9.88;2.85;;;11.60;86.50;;;;;;5070591;28;20028;-50
2022/07/17 03:51:36;;;;;;;7.38;3.25;;;11.60;86.40;;;;;;5070570;28;20040;-48
2022/07/17 03:54:02;;;;;;;5.55;2.90;;;11.60;86.40;;;;;;5070740;28;20123;-49
2022/07/17 03:56:28;;;;;;;8.35;2.95;;;11.60;86.50;;;;;;5070302;28;20041;-47
2022/07/17 03:58:54;;;;;;;10.23;3.47;;;11.70;86.40;;;;;;5053253;28;20045;-49
2022/07/17 04:01:19;;;;;;;10.07;3.72;;;11.70;86.40;;;;;;5070629;28;20040;-47
2022/07/17 04:03:45;;;;;;;6.97;2.65;;;11.80;86.40;;;;;;5052748;28;20031;-46
2022/07/17 04:06:11;;;;;;;11.32;2.83;;;11.90;86.50;;;;;;5051756;28;20035;-46
2022/07/17 04:08:36;;;;;;;5.65;2.88;;;11.90;86.50;;;;;;5070517;28;20105;-51
2022/07/17 04:11:02;;;;;;;6.63;3.25;;;11.90;86.40;;;;;;5070358;28;20042;-48
2022/07/17 04:13:30;;;;;;;7.28;2.50;;;12.00;86.40;;;;;;5070361;28;20040;-46
2022/07/17 04:15:56;;;;;;;10.20;3.03;;;12.00;86.30;;;;;;5052801;28;20071;-48
2022/07/17 04:18:29;;;;;;;4.30;2.63;;;12.10;86.10;;;;;;5069742;28;20032;-47
2022/07/17 04:21:00;;;;;;;4.85;2.85;;;12.20;86.00;;;;;;5070034;28;20104;-47
2022/07/17 04:23:26;;;;;;;7.88;2.53;;;12.20;85.80;;;;;;5069925;28;20046;-46
2022/07/17 04:25:52;;;;;;;6.82;3.10;;;12.30;85.80;;;;;;5070100;28;20032;-48
2022/07/17 04:28:18;;;;;;;7.03;2.97;;;12.30;85.70;;;;;;5069924;28;20024;-47
2022/07/17 04:30:44;;;;;;;5.10;2.42;;;12.30;85.60;;;;;;5069860;28;20349;-47
2022/07/17 04:33:10;;;;;;;4.80;2.83;;;12.30;85.40;;;;;;5069346;28;20044;-46
2022/07/17 04:35:36;;;;;;;10.32;2.45;;;12.30;85.20;;;;;;5052137;28;20024;-47
2022/07/17 04:38:04;;;;;;;6.35;3.25;;;12.20;85.10;;;;;;5052202;28;20048;-47
2022/07/17 04:40:30;;;;;;;10.18;2.95;;;12.20;85.20;;;;;;5068753;28;20439;-46
2022/07/17 04:42:58;;;;;;;6.47;2.92;;;12.30;85.20;;;;;;5068381;28;20124;-46
2022/07/17 04:45:24;;;;;;;6.45;2.40;;;12.30;85.30;;;;;;5068113;28;20049;-46
2022/07/17 04:47:50;;;;;;;6.00;3.03;;;12.30;85.40;;;;;;5051232;28;20615;-46
2022/07/17 04:50:15;;;;;;;6.95;2.83;;;12.40;85.30;;;;;;5048648;28;20029;-47
2022/07/17 04:52:41;;;;;;;13.43;3.03;;;12.40;85.30;;;;;;5069124;28;20032;-48
2022/07/17 04:55:07;;;;;;;3.78;2.25;;;12.40;85.30;;;;;;5068887;28;20056;-49
2022/07/17 04:57:33;;;;;;;10.60;2.55;;;12.40;85.40;;;;;;5068806;28;20031;-47
2022/07/17 05:00:01;;;;;;;5.03;2.28;;;12.40;85.20;;;;;;5068949;28;20028;-47
2022/07/17 05:02:26;;;;;;;9.00;2.88;;;12.50;85.30;;;;;;5068671;28;20647;-47
2022/07/17 05:04:52;;;;;;;6.45;2.35;;;12.60;85.40;;;;;;5068716;28;20108;-51
2022/07/17 05:07:18;;;;;;;6.50;2.28;;;12.70;85.40;;;;;;5069222;28;20430;-49
2022/07/17 05:09:43;;;;;;;8.38;3.10;;;12.80;85.40;;;;;;5068735;28;20032;-48
2022/07/17 05:12:11;;;;;;;5.10;2.30;;;12.90;85.50;;;;;;5068876;28;20060;-50
2022/07/17 05:14:37;;;;;;;6.00;2.70;;;12.90;85.10;;;;;;5069171;28;20093;-50
2022/07/17 05:17:03;;;;;;;7.35;2.78;;;13.00;84.70;;;;;;5068938;28;20029;-48
2022/07/17 05:19:28;;;;;;;7.95;3.42;;;13.10;84.70;;;;;;5068671;28;20028;-47
2022/07/17 05:21:54;;;;;;;4.07;2.28;;;13.30;84.60;;;;;;5067840;28;20020;-47
2022/07/17 05:24:20;;;;;;;5.75;2.08;;;13.40;84.50;;;;;;5068828;28;20027;-47
2022/07/17 05:26:48;;;;;;;5.15;2.33;;;13.50;84.30;;;;;;5068656;28;20024;-47
2022/07/17 05:29:14;;;;;;;7.28;1.88;;;13.60;83.80;;;;;;5069138;28;20033;-48
2022/07/17 05:31:39;;;;;;;7.00;2.78;;;13.80;83.60;;;;;;5050984;28;20054;-49
2022/07/17 05:34:07;;;;;;;4.35;2.13;;;13.80;83.40;;;;;;5068939;28;20028;-50
2022/07/17 05:36:32;;;;;;;5.57;2.00;;;13.90;83.40;;;;;;5068554;28;20350;-47
2022/07/17 05:38:58;;;;;;;8.10;2.17;;;14.00;83.40;;;;;;5068978;28;20024;-49
2022/07/17 05:41:24;;;;;;;5.00;2.25;;;14.00;83.40;;;;;;5067785;28;20067;-50
2022/07/17 05:43:49;;;;;;;6.25;2.55;;;14.10;83.30;;;;;;5068175;28;20091;-48
2022/07/17 05:46:15;;;;;;;5.82;2.40;;;14.10;83.30;;;;;;5067260;28;20028;-48
2022/07/17 05:48:41;;;;;;;7.18;2.03;;;14.20;83.50;;;;;;5067680;28;20042;-46
2022/07/17 05:51:06;;;;;;;5.60;2.80;;;14.20;83.30;;;;;;5067180;28;20063;-48
2022/07/17 05:53:32;;;;;;;5.57;2.00;;;14.20;83.20;;;;;;5048932;28;20634;-48
2022/07/17 05:55:58;;;;;;;8.90;2.38;;;14.40;83.40;;;;;;5065888;28;20035;-51
2022/07/17 05:58:24;;;;;;;5.28;1.70;;;14.70;83.10;;;;;;5066559;28;20028;-48
2022/07/17 06:00:53;;;;;;;5.95;2.17;;;14.90;82.60;;;;;;5049425;28;20039;-48
2022/07/17 06:03:19;;;;;;;6.40;1.50;;;15.10;81.80;;;;;;5066583;28;20024;-50
2022/07/17 06:05:45;;;;;;;5.40;1.67;;;15.30;80.90;;;;;;5073590;28;20277;-48
2022/07/17 06:08:11;;;;;;;5.00;1.50;;;15.40;80.90;;;;;;5056783;28;20108;-47
2022/07/17 06:10:38;;;;;;;8.05;2.15;;;15.60;80.50;;;;;;5073240;28;20034;-48
2022/07/17 06:13:04;;;;;;;6.32;1.83;;;15.80;80.20;;;;;;5074153;28;20027;-47
2022/07/17 06:15:29;;;;;;;3.38;1.98;;;15.90;79.60;;;;;;5055857;28;20827;-47
2022/07/17 06:17:55;;;;;;;4.40;1.42;;;15.90;79.50;;;;;;5074472;28;20036;-47
2022/07/17 06:20:21;;;;;;;7.53;2.25;;;16.00;79.40;;;;;;5073542;28;20025;-47
2022/07/17 06:22:46;;;;;;;8.32;1.90;;;16.00;79.30;;;;;;5074299;28;20024;-47
2022/07/17 06:25:13;;;;;;;5.22;1.77;;;16.10;79.30;;;;;;5074057;28;20035;-47
2022/07/17 06:27:42;;;;;;;4.32;1.10;;;16.20;79.70;;;;;;5074485;28;20522;-47
2022/07/17 06:30:14;;;;;;;7.55;1.90;;;16.40;78.80;;;;;;5056311;28;20024;-51
2022/07/17 06:32:40;;;;;;;7.50;1.70;;;16.30;78.80;;;;;;5074632;28;20028;-52
2022/07/17 06:35:07;;;;;;;4.60;1.38;;;16.40;78.10;;;;;;5057315;28;20025;-49
2022/07/17 06:37:35;;;;;;;6.32;1.25;;;16.50;78.30;;;;;;5075106;28;20438;-49
2022/07/17 06:40:00;;;;;;;4.50;1.85;;;16.50;78.00;;;;;;5075135;28;20032;-48
2022/07/17 06:42:26;;;;;;;4.57;1.60;;;16.70;78.00;;;;;;5056732;28;20032;-50
2022/07/17 06:44:52;;;;;;;4.28;0.98;;;16.90;77.10;;;;;;5039353;28;20055;-47
2022/07/17 06:47:17;;;;;;;5.22;1.45;;;17.10;77.00;;;;;;5075234;28;20017;-51
2022/07/17 06:49:45;;;;;;;4.40;1.05;;;17.30;76.60;;;;;;5056191;28;20044;-48
2022/07/17 06:52:12;;;;;;;4.53;1.17;;;17.60;75.10;;;;;;5072366;28;20101;-48
2022/07/17 06:54:40;;;;;;;4.18;1.23;;;17.80;75.00;;;;;;5056575;28;20028;-50
2022/07/17 06:57:06;;;;;;;6.38;1.20;;;17.90;73.10;;;;;;5056374;28;20107;-48
2022/07/17 06:59:31;;;;;;;7.35;1.40;;;17.90;72.80;;;;;;5055462;28;20397;-47
2022/07/17 07:01:57;;;;;;;5.00;1.40;;;17.80;73.10;;;;;;5056337;28;20025;-48
2022/07/17 07:04:27;;;;;;;5.85;2.05;;;17.80;72.50;;;;;;5056707;28;20028;-47
2022/07/17 07:06:53;;;;;;;6.93;1.83;;;17.90;72.80;;;;;;5072389;28;20021;-47
2022/07/17 07:09:24;;;;;;;4.53;1.15;;;17.80;71.00;;;;;;5056374;28;20035;-47
2022/07/17 07:11:49;;;;;;;2.63;0.90;;;17.80;72.60;;;;;;5053555;28;20331;-47
2022/07/17 07:14:17;;;;;;;3.38;0.98;;;17.90;72.60;;;;;;5055680;28;20103;-50
2022/07/17 07:16:43;;;;;;;6.18;1.10;;;17.90;72.60;;;;;;5069235;28;20032;-47
2022/07/17 07:19:11;;;;;;;6.30;1.42;;;17.90;72.30;;;;;;5068087;28;20074;-49
2022/07/17 07:21:37;;;;;;;5.70;1.23;;;18.00;72.00;;;;;;5070677;28;20032;-46
2022/07/17 07:24:03;;;;;;;5.55;1.13;;;18.00;70.70;;;;;;5071255;28;20016;-48
2022/07/17 07:26:31;;;;;;;6.38;1.98;;;18.30;69.90;;;;;;5071125;28;20024;-50
2022/07/17 07:28:57;;;;;;;3.45;0.85;;;18.60;68.70;;;;;;5071017;28;20404;-49
2022/07/17 07:31:23;;;;;;;5.13;0.90;;;18.90;67.60;;;;;;5070473;28;20048;-47
2022/07/17 07:33:52;;;;;;;5.97;1.20;;;18.80;67.40;;;;;;5070276;28;20459;-50
2022/07/17 07:36:18;;;;;;;4.55;1.40;;;18.80;67.40;;;;;;5070603;28;20131;-47
2022/07/17 07:38:45;;;;;;;4.13;0.98;;;18.60;67.70;;;;;;5071278;28;20107;-47
2022/07/17 07:41:11;;;;;;;4.90;1.48;;;18.40;67.70;;;;;;5071109;28;20410;-47
2022/07/17 07:43:37;;;;;;;4.60;0.85;;;18.40;67.80;;;;;;5053141;28;20119;-47
2022/07/17 07:46:03;;;;;;;3.55;1.10;;;18.50;66.20;;;;;;5070662;28;20056;-49
2022/07/17 07:48:29;;;;;;;4.60;1.00;;;18.60;66.80;;;;;;5053240;28;20111;-47
2022/07/17 07:50:55;;;;;;;4.93;0.90;;;18.90;66.30;;;;;;5071010;28;20112;-47
2022/07/17 07:53:23;;;;;;;3.78;1.88;;;19.40;64.70;;;;;;5071048;28;20032;-50
2022/07/17 07:55:48;;;;;;;5.10;1.38;;;20.20;62.90;;;;;;5036879;28;20414;-47
2022/07/17 07:58:14;;;;;;;5.78;1.00;;;20.40;61.60;;;;;;5032295;28;20033;-47
2022/07/17 08:00:43;;;;;;;4.95;1.42;;;20.80;61.10;;;;;;5063735;28;20028;-47
2022/07/17 08:03:08;;;;;;;3.13;0.77;;;21.00;60.10;;;;;;5067317;28;20025;-48
2022/07/17 08:05:34;;;;;;;4.72;0.95;;;21.20;60.20;;;;;;5069945;28;20024;-47
2022/07/17 08:08:00;;;;;;;3.00;0.80;;;21.20;61.10;;;;;;5070161;28;20032;-48
2022/07/17 08:10:26;;;;;;;3.30;1.05;;;20.60;61.10;;;;;;5070157;28;20043;-50
2022/07/17 08:12:52;;;;;;;2.47;1.00;;;20.10;62.70;;;;;;5070441;28;20039;-47
2022/07/17 08:15:20;;;;;;;6.80;1.65;;;19.90;64.30;;;;;;5070698;28;20029;-47
2022/07/17 08:17:50;;;;;;;3.95;1.38;;;20.30;64.00;;;;;;5070361;28;20033;-47
2022/07/17 08:20:16;;;;;;;3.72;1.05;;;20.30;62.20;;;;;;5042059;28;20028;-47
2022/07/17 08:22:43;;;;;;;4.10;0.80;;;19.80;62.70;;;;;;5052611;28;20028;-47
2022/07/17 08:25:09;;;;;;;4.70;1.30;;;20.30;63.60;;;;;;5070353;28;20056;-50
2022/07/17 08:27:39;;;;;;;2.55;0.95;;;21.20;59.80;;;;;;5070477;28;20043;-47
2022/07/17 08:30:07;;;;;;;8.23;1.27;;;21.10;58.80;;;;;;5070230;28;20021;-47
2022/07/17 08:32:33;;;;;;;3.35;1.52;;;20.50;60.00;;;;;;5070158;28;20052;-48
2022/07/17 08:34:58;;;;;;;3.60;0.80;;;20.50;61.50;;;;;;5052267;28;20025;-48
2022/07/17 08:37:27;;;;;;;2.67;0.70;;;21.10;60.40;;;;;;5069436;28;20583;-49
2022/07/17 08:39:52;;;;;;;5.88;1.50;;;21.30;59.20;;;;;;5052355;28;20032;-47
2022/07/17 08:42:18;;;;;;;6.47;1.77;;;21.00;57.50;;;;;;5070122;28;20513;-46
2022/07/17 08:44:45;;;;;;;2.15;1.00;;;21.00;58.40;;;;;;5044321;28;20049;-47
2022/07/17 08:47:15;;;;;;;3.35;0.93;;;21.50;57.40;;;;;;5044487;28;20048;-49
2022/07/17 08:49:45;;;;;;;3.10;0.80;;;21.90;55.90;;;;;;5049994;28;20029;-47
2022/07/17 08:52:14;;;;;;;4.13;1.05;;;22.30;54.30;;;;;;5030739;28;20485;-48
2022/07/17 08:54:42;;;;;;;2.33;0.90;;;22.60;52.60;;;;;;5030020;28;20029;-47
2022/07/17 08:57:11;;;;;;;3.40;0.60;;;23.10;51.60;;;;;;5029829;28;20109;-47
2022/07/17 08:59:36;;;;;;;4.07;0.77;;;23.30;54.70;;;;;;5029851;28;20148;-49
2022/07/17 09:02:04;;;;;;;1.98;0.90;;;23.60;53.60;;;;;;5012535;28;20117;-51
2022/07/17 09:04:30;;;;;;;5.32;0.90;;;23.90;53.90;;;;;;5037332;28;20031;-48
2022/07/17 09:07:06;;;;;;;4.88;0.75;;;24.40;52.00;;;;;;5048634;28;20033;-51
2022/07/17 09:09:34;;;;;;;2.40;0.80;;;23.60;51.60;;;;;;5048537;28;20044;-48
2022/07/17 09:12:01;;;;;;;4.03;1.20;;;22.50;54.00;;;;;;5048929;28;20493;-47
2022/07/17 09:14:41;;;;;;;3.22;0.95;;;21.80;55.00;;;;;;5048318;28;20029;-47
2022/07/17 09:17:09;;;;;;;3.38;1.20;;;21.40;57.50;;;;;;5047209;28;20023;-47
2022/07/17 09:19:36;;;;;;;4.40;1.10;;;21.50;58.00;;;;;;5048645;28;20116;-47
2022/07/17 09:22:13;;;;;;;2.67;0.88;;;22.10;57.10;;;;;;5030974;28;20106;-47
2022/07/17 09:24:53;;;;;;;4.68;1.30;;;21.70;55.90;;;;;;5048455;28;20055;-49
2022/07/17 09:27:25;;;;;;;4.65;0.90;;;22.30;56.00;;;;;;5048315;28;20021;-47
2022/07/17 09:30:01;;;;;;;2.63;0.88;;;22.80;56.20;;;;;;5047714;28;20094;-51
2022/07/17 09:32:31;;;;;;;5.38;1.35;;;23.30;53.50;;;;;;5031002;28;20029;-48
2022/07/17 09:34:57;;;;;;;;;;;22.90;53.40;;;;;;5049316;28;20036;-47
2022/07/17 09:37:28;;;;;;;4.05;1.30;;;22.40;54.70;;;;;;5048509;28;19917;-49
2022/07/17 09:39:55;;;;;;;4.90;1.20;;;21.90;56.80;;;;;;5030142;28;20041;-47
2022/07/17 09:42:29;;;;;;;3.90;1.08;;;22.40;55.90;;;;;;5048861;28;20021;-49
2022/07/17 09:45:08;;;;;;;3.63;0.90;;;22.40;56.40;;;;;;5055011;28;20170;-48
2022/07/17 09:47:36;;;;;;;3.10;1.27;;;22.20;56.20;;;;;;5051758;28;20461;-47
2022/07/17 09:50:04;;;;;;;3.13;0.90;;;22.20;56.00;;;;;;5062849;28;20335;-48
2022/07/17 09:52:33;;;;;;;5.70;1.55;;;21.70;57.60;;;;;;5050920;28;20032;-48
2022/07/17 09:54:59;;;;;;;6.22;1.30;;;21.40;57.80;;;;;;5064575;28;20554;-47
2022/07/17 09:57:37;;;;;;;4.32;1.63;;;21.30;59.00;;;;;;5067488;28;20025;-48
2022/07/17 10:00:11;;;;;;;3.92;0.95;;;21.20;60.10;;;;;;5068096;28;20032;-50
2022/07/17 10:02:43;;;;;;;3.00;0.90;;;21.80;57.30;;;;;;5053075;28;20021;-48
2022/07/17 10:05:15;;;;;;;3.33;0.95;;;22.40;57.60;;;;;;5066088;28;20028;-47
2022/07/17 10:07:42;;;;;;;5.20;1.20;;;22.50;56.40;;;;;;5068065;28;20028;-47
2022/07/17 10:10:09;;;;;;;3.33;1.00;;;21.90;56.10;;;;;;5066920;28;20033;-47
2022/07/17 10:12:39;;;;;;;4.65;1.27;;;21.60;57.30;;;;;;5067434;28;20329;-49
2022/07/17 10:15:07;;;;;;;4.93;1.17;;;21.90;57.40;;;;;;5067858;28;20081;-47
2022/07/17 10:17:33;;;;;;;4.03;1.40;;;22.50;56.10;;;;;;5048199;28;20162;-48
2022/07/17 10:20:02;;;;;;;4.15;1.33;;;22.90;55.00;;;;;;5050208;28;20127;-51
2022/07/17 10:22:44;;;;;;;4.00;1.00;;;23.40;55.90;;;;;;5051077;28;20024;-48
2022/07/17 10:25:14;;;;;;;6.10;1.13;;;23.20;54.20;;;;;;5050547;28;20155;-48
2022/07/17 10:27:50;;;;;;;5.05;1.10;;;22.70;56.70;;;;;;5050909;28;20024;-49
2022/07/17 10:30:24;;;;;;;3.67;0.90;;;22.40;56.30;;;;;;5068354;28;20031;-48
2022/07/17 10:32:59;;;;;;;3.53;1.10;;;22.50;56.70;;;;;;5068253;28;20078;-47
2022/07/17 10:35:28;;;;;;;3.90;1.38;;;23.00;53.30;;;;;;5083146;28;20162;-48
2022/07/17 10:38:08;;;;;;;5.72;1.40;;;23.40;56.70;;;;;;5065704;28;20120;-48
2022/07/17 10:40:36;;;;;;;2.65;0.88;;;23.90;52.00;;;;;;5066761;28;20028;-50
2022/07/17 10:43:05;;;;;;;3.33;0.90;;;23.80;51.00;;;;;;5064770;28;20104;-50
2022/07/17 10:45:45;;;;;;;3.37;1.23;;;24.30;53.80;;;;;;5049821;28;20465;-48
2022/07/17 10:48:14;;;;;;;3.13;1.23;;;24.30;51.30;;;;;;5048113;28;20122;-52
2022/07/17 10:50:58;;;;;;;4.35;1.20;;;24.10;51.70;;;;;;5069467;28;20036;-48
2022/07/17 10:53:27;;;;;;;3.15;0.98;;;23.60;52.20;;;;;;5069362;28;20472;-49
2022/07/17 10:55:56;;;;;;;3.80;1.25;;;23.20;53.50;;;;;;5053878;28;20036;-47
2022/07/17 10:58:28;;;;;;;2.90;1.30;;;22.50;54.70;;;;;;5071601;28;20035;-50
2022/07/17 11:00:57;;;;;;;3.47;1.38;;;22.60;57.50;;;;;;5069003;28;20507;-47
2022/07/17 11:03:22;;;;;;;6.40;1.70;;;22.40;56.90;;;;;;5052745;28;20516;-48
2022/07/17 11:05:48;;;;;;;3.65;1.30;;;22.70;56.10;;;;;;5071265;28;20051;-48
2022/07/17 11:08:16;;;;;;;3.63;1.38;;;22.90;56.30;;;;;;5071275;28;20026;-48
2022/07/17 11:10:44;;;;;;;3.50;1.20;;;22.50;55.20;;;;;;5071047;28;20029;-52
2022/07/17 11:13:16;;;;;;;5.95;2.22;;;22.20;56.70;;;;;;5070121;28;20062;-49
2022/07/17 11:15:44;;;;;;;4.38;1.50;;;22.40;57.10;;;;;;5071011;28;20017;-48
2022/07/17 11:18:21;;;;;;;2.45;1.02;;;22.70;58.30;;;;;;5053506;28;20457;-48
2022/07/17 11:20:54;;;;;;;2.97;1.52;;;23.00;58.60;;;;;;5053145;28;20025;-48
2022/07/17 11:23:22;;;;;;;2.90;1.17;;;23.90;59.30;;;;;;5053252;28;20052;-48
2022/07/17 11:26:09;;;;;;;2.42;1.00;;;24.20;55.30;;;;;;5052858;28;20067;-50
2022/07/17 11:28:44;;;;;;;3.17;1.15;;;24.70;52.00;;;;;;5053824;28;20070;-48
2022/07/17 11:31:23;;;;;;;3.35;1.08;;;25.00;52.30;;;;;;5070459;28;20115;-48
2022/07/17 11:33:51;;;;;;;3.58;1.52;;;25.20;53.40;;;;;;5052804;28;20434;-49
2022/07/17 11:36:31;;;;;;;2.75;1.15;;;24.90;50.90;;;;;;5070449;28;20040;-48
2022/07/17 11:39:01;;;;;;;2.85;1.20;;;24.90;51.00;;;;;;5069793;28;20029;-49
2022/07/17 11:41:52;;;;;;;4.00;1.50;;;25.00;50.70;;;;;;5070094;28;20043;-51
2022/07/17 11:44:24;;;;;;;4.07;1.13;;;24.80;51.30;;;;;;5069160;28;20473;-48
2022/07/17 11:46:53;;;;;;;2.22;1.13;;;24.50;51.40;;;;;;5070333;28;20059;-48
2022/07/17 11:49:25;;;;;;;3.63;1.45;;;24.50;52.80;;;;;;5070443;28;20040;-48
2022/07/17 11:51:51;;;;;;;3.75;1.17;;;24.40;52.50;;;;;;5070105;28;20116;-50
2022/07/17 11:54:17;;;;;;;5.05;1.02;;;24.60;55.70;;;;;;5052549;28;20139;-47
2022/07/17 11:56:51;;;;;;;5.53;1.33;;;24.60;54.30;;;;;;5069759;28;20044;-47
2022/07/17 11:59:27;;;;;;;3.90;1.10;;;24.40;52.70;;;;;;5051873;28;20082;-48
2022/07/17 12:01:54;;;;;;;4.93;1.52;;;24.40;54.10;;;;;;5069458;28;20111;-48
2022/07/17 12:04:20;;;;;;;8.02;1.42;;;24.50;53.80;;;;;;5069520;28;20018;-48
2022/07/17 12:06:57;;;;;;;4.20;1.40;;;24.40;54.20;;;;;;5069198;28;20028;-47
2022/07/17 12:09:33;;;;;;;5.15;1.40;;;24.50;51.70;;;;;;5049588;28;20058;-48
2022/07/17 12:11:59;;;;;;;6.10;1.55;;;24.50;54.10;;;;;;5067576;28;20044;-48
2022/07/17 12:14:29;;;;;;;6.22;1.65;;;24.40;53.20;;;;;;5069642;28;20028;-48
2022/07/17 12:17:00;;;;;;;5.20;1.77;;;24.10;54.60;;;;;;5051704;28;20032;-49
2022/07/17 12:19:26;;;;;;;3.38;1.20;;;24.30;54.50;;;;;;5069629;28;20442;-48
2022/07/17 12:21:59;;;;;;;3.28;1.10;;;24.00;52.80;;;;;;5070035;28;20032;-47
2022/07/17 12:24:31;;;;;;;4.70;1.67;;;24.00;52.80;;;;;;5069946;28;20021;-50
2022/07/17 12:26:59;;;;;;;3.72;1.50;;;23.90;54.60;;;;;;5069234;28;20106;-49
2022/07/17 12:29:26;;;;;;;2.97;1.15;;;23.80;55.30;;;;;;5069438;28;20020;-48
2022/07/17 12:32:03;;;;;;;3.33;1.10;;;23.70;54.70;;;;;;5069630;28;20028;-47
2022/07/17 12:34:31;;;;;;;3.28;1.25;;;23.80;54.80;;;;;;5069697;28;20432;-48
2022/07/17 12:36:56;;;;;;;4.25;1.35;;;23.90;54.60;;;;;;5035650;28;20055;-47
2022/07/17 12:39:22;;;;;;;2.92;1.15;;;23.50;52.80;;;;;;5050621;28;20024;-47
2022/07/17 12:41:48;;;;;;;3.55;1.35;;;23.10;52.90;;;;;;5050353;28;20169;-50
2022/07/17 12:44:13;;;;;;;4.15;1.85;;;23.10;54.40;;;;;;5068357;28;20041;-48
2022/07/17 12:46:42;;;;;;;4.45;1.85;;;23.20;57.10;;;;;;5051693;28;20032;-47
2022/07/17 12:49:07;;;;;;;2.78;1.33;;;23.30;56.00;;;;;;5069399;28;20358;-47